createdAt,value
2023-03-03T00:00:19.026Z,99554.16
2023-03-03T00:03:41.661Z,99544.85
2023-03-03T00:06:45.188Z,99541.73
2023-03-03T00:09:47.820Z,99539.98
2023-03-03T00:12:51.163Z,99534.86
2023-03-03T00:15:54.475Z,99528.38
2023-03-03T00:18:57.936Z,99524.16
2023-03-03T00:22:00.598Z,99517.22
2023-03-03T00:25:21.506Z,99519.73
2023-03-03T00:28:26.990Z,99517.77
2023-03-03T00:31:34.051Z,99521.54
2023-03-03T00:34:36.926Z,99519.30
2023-03-03T00:37:41.247Z,99514.40
2023-03-03T00:40:46.235Z,99508.50
2023-03-03T00:43:48.966Z,99498.09
2023-03-03T00:46:54.128Z,99504.16
2023-03-03T00:50:16.718Z,99499.66
2023-03-03T00:53:20.205Z,99496.64
2023-03-03T00:56:23.497Z,99496.73
2023-03-03T00:59:26.105Z,99496.88
2023-03-03T01:02:29.531Z,99495.41
2023-03-03T01:05:32.462Z,99496.07
2023-03-03T01:08:35.182Z,99491.59
2023-03-03T01:11:37.945Z,99491.95
2023-03-03T01:14:40.796Z,99495.17
2023-03-03T01:17:43.791Z,99490.50
2023-03-03T01:20:46.856Z,99493.31
2023-03-03T01:23:49.611Z,99484.23
2023-03-03T01:26:52.499Z,99481.42
2023-03-03T01:29:56.480Z,99475.62
2023-03-03T01:32:59.328Z,99471.27
2023-03-03T01:36:02.587Z,99468.19
2023-03-03T01:39:05.240Z,99457.98
2023-03-03T01:42:08.188Z,99456.91
2023-03-03T01:45:21.910Z,99453.99
2023-03-03T01:48:36.547Z,99450.25
2023-03-03T01:51:43.483Z,99456.19
2023-03-03T01:54:50.511Z,99460.46
2023-03-03T01:57:58.549Z,99464.64
2023-03-03T02:01:04.152Z,99468.22
2023-03-03T02:04:07.394Z,99464.67
2023-03-03T02:07:11.752Z,99462.87
2023-03-03T02:10:18.737Z,99460.59
2023-03-03T02:13:21.454Z,99459.33
2023-03-03T02:16:24.274Z,99454.29
2023-03-03T02:19:27.019Z,99442.92
2023-03-03T02:22:44.368Z,99442.23
2023-03-03T02:25:50.629Z,99440.98
2023-03-03T02:28:53.277Z,99443.03
2023-03-03T02:31:56.265Z,99446.15
2023-03-03T02:34:59.119Z,99439.56
2023-03-03T02:38:09.980Z,99437.12
2023-03-03T02:41:35.121Z,99431.18
2023-03-03T02:44:38.420Z,99428.40
2023-03-03T02:47:41.068Z,99434.08
2023-03-03T02:50:43.894Z,99438.19
2023-03-03T02:53:46.509Z,99436.83
2023-03-03T02:56:49.909Z,99436.94
2023-03-03T02:59:52.638Z,99432.85
2023-03-03T03:02:55.408Z,99432.66
2023-03-03T03:05:58.800Z,99430.65
2023-03-03T03:09:01.940Z,99431.39
2023-03-03T03:12:05.489Z,99431.27
2023-03-03T03:15:10.305Z,99433.90
2023-03-03T03:18:13.490Z,99428.77
2023-03-03T03:21:17.678Z,99431.82
2023-03-03T03:24:20.380Z,99437.20
2023-03-03T03:27:28.509Z,99443.94
2023-03-03T03:30:32.259Z,99449.56
2023-03-03T03:33:35.750Z,99455.11
2023-03-03T03:36:39.974Z,99451.70
2023-03-03T03:39:43.569Z,99450.31
2023-03-03T03:42:46.337Z,99449.13
2023-03-03T03:45:49.384Z,99451.60
2023-03-03T03:48:52.372Z,99457.06
2023-03-03T03:51:55.876Z,99455.06
2023-03-03T03:55:00.308Z,99451.25
2023-03-03T03:58:03.187Z,99442.55
2023-03-03T04:01:07.702Z,99440.83
2023-03-03T04:04:13.602Z,99442.31
2023-03-03T04:07:16.412Z,99444.98
2023-03-03T04:10:20.010Z,99444.17
2023-03-03T04:13:23.523Z,99428.11
2023-03-03T04:16:26.365Z,99423.42
2023-03-03T04:19:29.188Z,99415.48
2023-03-03T04:22:34.111Z,99407.45
2023-03-03T04:25:36.935Z,99400.77
2023-03-03T04:28:42.214Z,99392.16
2023-03-03T04:31:45.904Z,99392.27
2023-03-03T04:34:58.690Z,99395.59
2023-03-03T04:38:10.384Z,99400.24
2023-03-03T04:41:13.249Z,99404.79
2023-03-03T04:44:17.315Z,99403.95
2023-03-03T04:47:20.069Z,99404.15
2023-03-03T04:50:25.791Z,99396.72
2023-03-03T04:53:29.377Z,99400.08
2023-03-03T04:56:32.467Z,99394.06
2023-03-03T04:59:36.321Z,99392.64
2023-03-03T05:02:39.784Z,99389.23
2023-03-03T05:05:42.623Z,99400.99
2023-03-03T05:08:46.173Z,99398.11
2023-03-03T05:11:48.896Z,99397.39
2023-03-03T05:14:51.716Z,99400.98
2023-03-03T05:17:56.536Z,99406.66
2023-03-03T05:20:59.570Z,99400.44
2023-03-03T05:24:02.231Z,99400.30
2023-03-03T05:27:04.928Z,99401.77
2023-03-03T05:30:08.051Z,99401.19
2023-03-03T05:33:13.495Z,99408.45
2023-03-03T05:36:16.153Z,99414.89
2023-03-03T05:39:18.772Z,99420.61
2023-03-03T05:42:22.024Z,99420.73
2023-03-03T05:45:24.918Z,99416.79
2023-03-03T05:48:27.984Z,99412.15
2023-03-03T05:51:30.706Z,99411.49
2023-03-03T05:54:33.367Z,99416.20
2023-03-03T05:57:36.034Z,99424.98
2023-03-03T06:00:38.865Z,99422.90
2023-03-03T06:03:41.500Z,99428.24
2023-03-03T06:06:44.136Z,99418.15
2023-03-03T06:09:46.968Z,99425.98
2023-03-03T06:12:49.661Z,99421.87
2023-03-03T06:15:52.290Z,99414.82
2023-03-03T06:18:54.965Z,99409.96
2023-03-03T06:22:00.550Z,99410.53
2023-03-03T06:25:03.882Z,99416.89
2023-03-03T06:28:06.592Z,99422.62
2023-03-03T06:31:09.598Z,99421.45
2023-03-03T06:34:12.332Z,99419.11
2023-03-03T06:37:15.013Z,99415.55
2023-03-03T06:40:17.775Z,99415.24
2023-03-03T06:43:20.662Z,99414.87
2023-03-03T06:46:23.545Z,99411.56
2023-03-03T06:49:26.354Z,99410.41
2023-03-03T06:52:28.995Z,99412.94
2023-03-03T06:55:31.749Z,99410.74
2023-03-03T06:58:35.253Z,99405.33
2023-03-03T07:01:38.371Z,99410.89
2023-03-03T07:04:41.534Z,99415.95
2023-03-03T07:07:46.871Z,99415.69
2023-03-03T07:10:50.351Z,99416.29
2023-03-03T07:13:54.967Z,99414.77
2023-03-03T07:17:00.069Z,99409.31
2023-03-03T07:20:12.023Z,99396.10
2023-03-03T07:23:26.686Z,99395.41
2023-03-03T07:26:33.272Z,99396.80
2023-03-03T07:29:37.963Z,99398.98
2023-03-03T07:32:43.267Z,99405.87
2023-03-03T07:35:47.432Z,99411.83
2023-03-03T07:38:54.378Z,99411.43
2023-03-03T07:42:02.944Z,99409.64
2023-03-03T07:45:23.047Z,99409.12
2023-03-03T07:48:30.295Z,99408.77
2023-03-03T07:51:42.131Z,99406.36
2023-03-03T07:54:46.109Z,99405.35
2023-03-03T07:57:51.773Z,99406.11
2023-03-03T08:01:15.455Z,99403.91
2023-03-03T08:04:39.210Z,99406.32
2023-03-03T08:07:42.118Z,99406.77
2023-03-03T08:10:49.282Z,99401.48
2023-03-03T08:13:52.141Z,99401.83
2023-03-03T08:16:55.889Z,99408.97
2023-03-03T08:19:58.516Z,99408.31
2023-03-03T08:23:01.172Z,99391.59
2023-03-03T08:26:03.853Z,99393.73
2023-03-03T08:29:06.530Z,99388.05
2023-03-03T08:32:09.263Z,99392.09
2023-03-03T08:35:12.063Z,99393.27
2023-03-03T08:38:16.325Z,99402.80
2023-03-03T08:41:18.997Z,99410.65
2023-03-03T08:44:21.652Z,99414.23
2023-03-03T08:47:24.291Z,99413.02
2023-03-03T08:50:27.381Z,99418.96
2023-03-03T08:53:30.545Z,99426.77
2023-03-03T08:56:35.485Z,99430.98
2023-03-03T08:59:39.282Z,99431.64
2023-03-03T09:02:42.325Z,99433.94
2023-03-03T09:05:45.853Z,99432.64
2023-03-03T09:08:49.440Z,99429.21
2023-03-03T09:11:54.829Z,99430.25
2023-03-03T09:15:03.384Z,99431.79
2023-03-03T09:18:13.684Z,99430.66
2023-03-03T09:21:22.906Z,99432.75
2023-03-03T09:24:29.624Z,99431.79
2023-03-03T09:27:35.165Z,99426.19
2023-03-03T09:30:44.704Z,99423.48
2023-03-03T09:33:49.893Z,99420.94
2023-03-03T09:36:53.519Z,99416.65
2023-03-03T09:39:57.745Z,99418.30
2023-03-03T09:43:06.552Z,99420.48
2023-03-03T09:46:21.308Z,99417.46
2023-03-03T09:49:26.380Z,99418.73
2023-03-03T09:52:47.944Z,99415.35
2023-03-03T09:55:50.541Z,99415.42
2023-03-03T09:59:12.165Z,99415.70
2023-03-03T10:02:25.166Z,99416.02
2023-03-03T10:05:34.062Z,99416.71
2023-03-03T10:08:48.781Z,99414.55
2023-03-03T10:11:54.168Z,99414.54
2023-03-03T10:14:56.891Z,99413.05
2023-03-03T10:18:17.724Z,99415.18
2023-03-03T10:21:39.310Z,99421.92
2023-03-03T10:24:57.146Z,99429.11
2023-03-03T10:28:30.352Z,99427.08
2023-03-03T10:31:59.669Z,99427.29
2023-03-03T10:35:05.601Z,99427.94
2023-03-03T10:38:10.829Z,99423.36
2023-03-03T10:41:35.710Z,99413.30
2023-03-03T10:44:57.045Z,99411.70
2023-03-03T10:48:07.443Z,99406.96
2023-03-03T10:51:10.137Z,99400.41
2023-03-03T10:54:30.506Z,99397.08
2023-03-03T10:57:36.379Z,99395.73
2023-03-03T11:00:44.142Z,99387.60
2023-03-03T11:03:56.169Z,99383.19
2023-03-03T11:07:28.133Z,99380.81
2023-03-03T11:10:42.517Z,99374.36
2023-03-03T11:14:01.326Z,99373.65
2023-03-03T11:17:04.090Z,99374.48
2023-03-03T11:20:17.279Z,99378.17
2023-03-03T11:23:39.574Z,99375.58
2023-03-03T11:26:54.637Z,99379.41
2023-03-03T11:29:57.582Z,99387.09
2023-03-03T11:33:05.090Z,99387.08
2023-03-03T11:36:10.864Z,99386.20
2023-03-03T11:39:18.139Z,99384.32
2023-03-03T11:42:32.921Z,99378.43
2023-03-03T11:45:50.044Z,99389.35
2023-03-03T11:49:03.199Z,99390.22
2023-03-03T11:52:22.327Z,99393.44
2023-03-03T11:55:33.352Z,99395.80
2023-03-03T11:58:50.900Z,99390.55
2023-03-03T12:01:56.314Z,99391.60
2023-03-03T12:05:28.610Z,99385.27
2023-03-03T12:08:50.260Z,99384.80
2023-03-03T12:12:05.605Z,99376.30
2023-03-03T12:15:23.192Z,99377.84
2023-03-03T12:18:31.888Z,99370.01
2023-03-03T12:21:42.293Z,99366.75
2023-03-03T12:25:04.606Z,99370.96
2023-03-03T12:28:07.280Z,99372.35
2023-03-03T12:31:28.498Z,99374.64
2023-03-03T12:34:38.467Z,99374.91
2023-03-03T12:37:53.544Z,99369.85
2023-03-03T12:41:31.557Z,99369.93
2023-03-03T12:44:39.540Z,99366.59
2023-03-03T12:47:50.093Z,99368.34
2023-03-03T12:50:55.924Z,99366.63
2023-03-03T12:53:58.615Z,99370.79
2023-03-03T12:57:07.648Z,99365.71
2023-03-03T13:00:16.486Z,99362.63
2023-03-03T13:03:28.352Z,99363.81
2023-03-03T13:06:34.355Z,99358.94
2023-03-03T13:09:50.196Z,99360.50
2023-03-03T13:12:58.965Z,99357.86
2023-03-03T13:16:07.042Z,99357.27
2023-03-03T13:19:11.639Z,99356.67
2023-03-03T13:22:20.542Z,99351.73
2023-03-03T13:25:44.374Z,99360.73
2023-03-03T13:28:50.358Z,99360.36
2023-03-03T13:31:59.690Z,99355.52
2023-03-03T13:35:07.370Z,99356.27
2023-03-03T13:38:13.211Z,99355.87
2023-03-03T13:41:15.857Z,99358.84
2023-03-03T13:44:18.448Z,99360.27
2023-03-03T13:47:21.142Z,99362.69
2023-03-03T13:50:27.384Z,99360.20
2023-03-03T13:53:39.645Z,99353.84
2023-03-03T13:57:01.207Z,99355.36
2023-03-03T14:00:13.569Z,99358.14
2023-03-03T14:03:28.708Z,99357.61
2023-03-03T14:06:31.425Z,99353.33
2023-03-03T14:09:44.052Z,99352.63
2023-03-03T14:12:55.172Z,99352.41
2023-03-03T14:16:03.748Z,99356.09
2023-03-03T14:19:12.441Z,99356.48
2023-03-03T14:22:23.904Z,99353.69
2023-03-03T14:25:27.065Z,99351.14
2023-03-03T14:28:37.448Z,99346.55
2023-03-03T14:31:43.096Z,99347.96
2023-03-03T14:34:46.720Z,99342.88
2023-03-03T14:37:50.388Z,99337.98
2023-03-03T14:41:08.099Z,99344.23
2023-03-03T14:44:27.079Z,99347.34
2023-03-03T14:47:30.257Z,99346.92
2023-03-03T14:50:32.972Z,99345.89
2023-03-03T14:53:37.182Z,99342.80
2023-03-03T14:56:54.938Z,99348.82
2023-03-03T14:59:59.319Z,99340.96
2023-03-03T15:03:06.640Z,99337.13
2023-03-03T15:06:16.399Z,99328.01
2023-03-03T15:09:35.980Z,99327.96
2023-03-03T15:12:40.719Z,99318.70
2023-03-03T15:15:51.701Z,99322.48
2023-03-03T15:19:00.550Z,99322.73
2023-03-03T15:22:24.322Z,99319.73
2023-03-03T15:25:43.225Z,99313.30
2023-03-03T15:28:49.632Z,99310.77
2023-03-03T15:31:52.405Z,99304.08
2023-03-03T15:35:00.059Z,99305.49
2023-03-03T15:38:17.894Z,99306.92
2023-03-03T15:41:35.710Z,99305.73
2023-03-03T15:44:41.306Z,99314.21
2023-03-03T15:48:04.221Z,99314.54
2023-03-03T15:51:06.827Z,99307.48
2023-03-03T15:54:14.276Z,99302.91
2023-03-03T15:57:19.777Z,99304.65
2023-03-03T16:00:33.524Z,99313.00
2023-03-03T16:03:59.196Z,99315.14
2023-03-03T16:07:04.809Z,99318.89
2023-03-03T16:10:12.452Z,99320.35
2023-03-03T16:13:33.804Z,99329.72
2023-03-03T16:16:36.736Z,99333.13
2023-03-03T16:20:05.897Z,99330.75
2023-03-03T16:23:08.577Z,99331.36
2023-03-03T16:26:14.377Z,99331.02
2023-03-03T16:29:23.466Z,99327.14
2023-03-03T16:32:26.174Z,99331.66
2023-03-03T16:35:33.507Z,99338.63
2023-03-03T16:38:37.708Z,99332.04
2023-03-03T16:41:49.610Z,99327.13
2023-03-03T16:44:55.194Z,99327.96
2023-03-03T16:47:58.070Z,99325.80
2023-03-03T16:51:09.647Z,99328.95
2023-03-03T16:54:21.049Z,99323.15
2023-03-03T16:57:26.851Z,99320.59
2023-03-03T17:00:30.906Z,99319.04
2023-03-03T17:03:52.354Z,99318.79
2023-03-03T17:06:58.758Z,99316.70
2023-03-03T17:10:13.694Z,99311.48
2023-03-03T17:13:35.009Z,99314.05
2023-03-03T17:16:52.742Z,99318.83
2023-03-03T17:20:03.677Z,99318.23
2023-03-03T17:23:09.289Z,99326.20
2023-03-03T17:26:30.637Z,99332.50
2023-03-03T17:29:50.192Z,99326.30
2023-03-03T17:33:05.081Z,99329.92
2023-03-03T17:36:18.544Z,99339.10
2023-03-03T17:39:21.270Z,99337.13
2023-03-03T17:42:35.627Z,99333.70
2023-03-03T17:45:40.950Z,99336.04
2023-03-03T17:49:10.008Z,99332.64
2023-03-03T17:52:31.392Z,99330.58
2023-03-03T17:55:43.063Z,99331.42
2023-03-03T17:58:48.459Z,99334.64
2023-03-03T18:02:00.987Z,99341.12
2023-03-03T18:05:22.904Z,99333.52
2023-03-03T18:08:40.810Z,99329.23
2023-03-03T18:12:02.565Z,99327.00
2023-03-03T18:15:17.556Z,99327.14
2023-03-03T18:18:26.125Z,99324.34
2023-03-03T18:21:37.648Z,99311.21
2023-03-03T18:24:49.227Z,99305.29
2023-03-03T18:28:00.766Z,99303.89
2023-03-03T18:31:05.049Z,99306.09
2023-03-03T18:34:20.298Z,99307.52
2023-03-03T18:37:39.549Z,99297.50
2023-03-03T18:41:01.258Z,99296.30
2023-03-03T18:44:30.248Z,99295.79
2023-03-03T18:47:51.957Z,99299.27
2023-03-03T18:50:55.017Z,99295.00
2023-03-03T18:54:30.543Z,99298.91
2023-03-03T18:57:33.515Z,99298.92
2023-03-03T19:00:42.023Z,99299.18
2023-03-03T19:03:47.474Z,99294.67
2023-03-03T19:06:51.474Z,99292.52
2023-03-03T19:09:58.771Z,99291.85
2023-03-03T19:13:01.854Z,99290.02
2023-03-03T19:16:08.275Z,99285.59
2023-03-03T19:19:15.688Z,99282.78
2023-03-03T19:22:30.817Z,99282.13
2023-03-03T19:25:33.850Z,99277.59
2023-03-03T19:28:39.947Z,99274.61
2023-03-03T19:31:45.713Z,99271.02
2023-03-03T19:35:07.027Z,99264.31
2023-03-03T19:38:12.860Z,99260.36
2023-03-03T19:41:27.659Z,99256.61
2023-03-03T19:44:33.350Z,99245.16
2023-03-03T19:47:44.618Z,99243.27
2023-03-03T19:51:14.830Z,99236.61
2023-03-03T19:54:20.680Z,99235.65
2023-03-03T19:57:32.774Z,99232.64
2023-03-03T20:00:42.586Z,99229.48
2023-03-03T20:03:58.333Z,99225.60
2023-03-03T20:07:29.195Z,99222.31
2023-03-03T20:10:45.568Z,99220.41
2023-03-03T20:13:48.178Z,99219.63
2023-03-03T20:16:54.017Z,99224.89
2023-03-03T20:20:15.920Z,99217.58
2023-03-03T20:23:33.069Z,99214.02
2023-03-03T20:26:54.817Z,99212.83
2023-03-03T20:29:58.744Z,99205.23
2023-03-03T20:33:26.165Z,99203.30
2023-03-03T20:36:36.571Z,99193.08
2023-03-03T20:39:51.693Z,99191.20
2023-03-03T20:42:54.289Z,99181.79
2023-03-03T20:46:07.980Z,99180.61
2023-03-03T20:49:10.726Z,99176.20
2023-03-03T20:52:34.387Z,99174.55
2023-03-03T20:56:06.813Z,99170.08
2023-03-03T20:59:09.584Z,99168.34
2023-03-03T21:02:19.370Z,99166.16
2023-03-03T21:05:23.600Z,99174.19
2023-03-03T21:08:58.679Z,99159.63
2023-03-03T21:12:04.824Z,99155.34
2023-03-03T21:15:11.572Z,99147.92
2023-03-03T21:18:22.068Z,99146.70
2023-03-03T21:21:25.938Z,99140.70
2023-03-03T21:24:47.639Z,99138.84
2023-03-03T21:27:50.238Z,99134.20
2023-03-03T21:31:05.294Z,99125.92
2023-03-03T21:34:17.692Z,99122.90
2023-03-03T21:37:40.232Z,99118.42
2023-03-03T21:40:44.558Z,99115.38
2023-03-03T21:43:48.925Z,99117.82
2023-03-03T21:46:51.615Z,99112.33
2023-03-03T21:49:54.342Z,99107.54
2023-03-03T21:52:56.994Z,99109.08
2023-03-03T21:55:59.670Z,99104.77
2023-03-03T21:59:02.411Z,99095.75
2023-03-03T22:02:05.234Z,99100.85
2023-03-03T22:05:08.154Z,99097.23
2023-03-03T22:08:10.842Z,99094.23
2023-03-03T22:11:15.559Z,99088.42
2023-03-03T22:14:18.356Z,99094.32
2023-03-03T22:17:21.196Z,99091.02
2023-03-03T22:20:23.880Z,99089.30
2023-03-03T22:23:26.566Z,99087.17
2023-03-03T22:26:29.173Z,99086.89
2023-03-03T22:29:31.792Z,99078.80
2023-03-03T22:32:34.533Z,99082.67
2023-03-03T22:35:37.265Z,99084.23
2023-03-03T22:38:40.199Z,99085.34
2023-03-03T22:41:42.799Z,99077.91
2023-03-03T22:44:46.211Z,99073.39
2023-03-03T22:47:48.926Z,99068.00
2023-03-03T22:50:51.802Z,99073.36
2023-03-03T22:53:54.528Z,99067.91
2023-03-03T22:56:57.162Z,99057.95
2023-03-03T23:00:00.230Z,99057.52
2023-03-03T23:03:03.071Z,99053.58
2023-03-03T23:06:06.090Z,99048.31
2023-03-03T23:09:08.783Z,99041.13
2023-03-03T23:12:11.386Z,99036.89
2023-03-03T23:15:14.145Z,99033.29
2023-03-03T23:18:16.760Z,99028.58
2023-03-03T23:21:19.636Z,99021.79
2023-03-03T23:24:22.598Z,99018.48
2023-03-03T23:27:25.347Z,99009.76
2023-03-03T23:30:27.941Z,99004.02
2023-03-03T23:33:30.589Z,99000.92
2023-03-03T23:36:33.262Z,98996.50
2023-03-03T23:39:36.191Z,98991.23
2023-03-03T23:42:38.836Z,98989.87
2023-03-03T23:45:41.848Z,98987.83
2023-03-03T23:48:44.501Z,98993.61
2023-03-03T23:51:47.102Z,98983.69
2023-03-03T23:54:50.057Z,98982.33
2023-03-03T23:57:52.702Z,98978.54
